createdAt,value
2022-12-26T00:02:15.492Z,14.75
2022-12-26T00:06:32.313Z,15.48
2022-12-26T00:10:48.534Z,15.25
2022-12-26T00:15:05.288Z,15.60
2022-12-26T00:19:21.550Z,15.65
2022-12-26T00:23:38.373Z,16.10
2022-12-26T00:27:54.648Z,15.68
2022-12-26T00:32:10.944Z,15.95
2022-12-26T00:36:30.908Z,17.45
2022-12-26T00:40:47.057Z,16.27
2022-12-26T00:45:03.646Z,16.65
2022-12-26T00:49:19.960Z,17.37
2022-12-26T00:53:36.705Z,17.05
2022-12-26T00:57:52.914Z,15.57
2022-12-26T01:02:29.240Z,16.77
2022-12-26T01:06:45.593Z,17.08
2022-12-26T01:11:12.835Z,18.17
2022-12-26T01:15:29.069Z,17.30
2022-12-26T01:19:45.456Z,18.98
2022-12-26T01:24:02.153Z,19.55
2022-12-26T01:28:18.385Z,19.58
2022-12-26T01:32:34.620Z,18.77
2022-12-26T01:36:52.232Z,18.42
2022-12-26T01:41:17.361Z,19.05
2022-12-26T01:45:33.883Z,17.95
2022-12-26T01:49:53.087Z,18.37
2022-12-26T01:54:40.807Z,18.23
2022-12-26T01:59:12.976Z,17.73
2022-12-26T02:03:47.766Z,17.40
2022-12-26T02:08:14.986Z,17.30
2022-12-26T02:12:38.495Z,17.90
2022-12-26T02:16:56.194Z,17.92
2022-12-26T02:21:56.377Z,18.33
2022-12-26T02:26:31.335Z,18.65
2022-12-26T02:30:50.650Z,18.20
2022-12-26T02:35:31.663Z,19.60
2022-12-26T02:39:56.837Z,18.25
2022-12-26T02:44:51.237Z,18.55
2022-12-26T02:49:29.950Z,18.08
2022-12-26T02:54:55.272Z,18.25
2022-12-26T02:59:55.537Z,19.12
2022-12-26T03:04:34.770Z,19.62
2022-12-26T03:09:29.463Z,20.12
2022-12-26T03:13:46.209Z,19.05
2022-12-26T03:18:06.781Z,19.42
2022-12-26T03:22:32.142Z,19.58
2022-12-26T03:26:54.272Z,19.05
2022-12-26T03:31:15.503Z,20.48
2022-12-26T03:35:34.328Z,19.27
2022-12-26T03:40:17.995Z,20.67
2022-12-26T03:45:10.858Z,19.73
2022-12-26T03:49:49.823Z,18.80
2022-12-26T03:54:32.306Z,19.30
2022-12-26T03:59:14.976Z,18.48
2022-12-26T04:03:52.106Z,19.75
2022-12-26T04:08:36.029Z,18.65
2022-12-26T04:13:12.126Z,19.33
2022-12-26T04:17:50.206Z,18.15
2022-12-26T04:23:02.395Z,20.42
2022-12-26T04:27:40.536Z,19.50
2022-12-26T04:32:27.509Z,19.25
2022-12-26T04:37:20.657Z,18.50
2022-12-26T04:41:56.019Z,20.37
2022-12-26T04:46:12.677Z,18.62
2022-12-26T04:50:29.053Z,18.77
2022-12-26T04:54:45.284Z,19.15
2022-12-26T04:59:01.517Z,18.42
2022-12-26T05:03:36.463Z,18.85
2022-12-26T05:08:11.477Z,18.58
2022-12-26T05:12:27.784Z,19.35
2022-12-26T05:17:02.454Z,18.58
2022-12-26T05:21:37.609Z,19.83
2022-12-26T05:26:12.219Z,20.17
2022-12-26T05:30:28.817Z,19.75
2022-12-26T05:34:45.095Z,18.95
2022-12-26T05:39:02.163Z,19.70
2022-12-26T05:43:20.059Z,19.08
2022-12-26T05:47:36.415Z,20.40
2022-12-26T05:51:52.620Z,19.42
2022-12-26T05:56:14.905Z,19.27
2022-12-26T06:00:31.730Z,17.77
2022-12-26T06:04:47.910Z,18.55
2022-12-26T06:09:04.141Z,20.00
2022-12-26T06:13:20.714Z,18.40
2022-12-26T06:17:37.132Z,19.30
2022-12-26T06:21:53.448Z,18.65
2022-12-26T06:26:10.551Z,19.23
2022-12-26T06:30:26.737Z,19.27
2022-12-26T06:34:43.081Z,19.10
2022-12-26T06:39:01.675Z,19.67
2022-12-26T06:43:18.004Z,17.65
2022-12-26T06:47:34.295Z,17.90
2022-12-26T06:51:50.550Z,18.08
2022-12-26T06:56:15.320Z,19.02
2022-12-26T07:00:31.728Z,17.92
2022-12-26T07:04:48.052Z,19.40
2022-12-26T07:09:10.139Z,19.42
2022-12-26T07:13:26.498Z,19.25
2022-12-26T07:17:42.909Z,19.00
2022-12-26T07:21:59.173Z,20.12
2022-12-26T07:26:15.459Z,18.58
2022-12-26T07:30:31.755Z,19.00
2022-12-26T07:34:47.869Z,19.58
2022-12-26T07:39:04.463Z,19.98
2022-12-26T07:43:20.714Z,19.02
2022-12-26T07:47:37.027Z,18.95
2022-12-26T07:51:53.504Z,19.15
2022-12-26T07:56:09.813Z,20.27
2022-12-26T08:00:26.024Z,20.35
2022-12-26T08:04:42.324Z,20.30
2022-12-26T08:08:58.550Z,20.12
2022-12-26T08:13:15.991Z,20.45
2022-12-26T08:17:33.133Z,21.40
2022-12-26T08:21:51.765Z,20.48
2022-12-26T08:26:10.717Z,19.40
2022-12-26T08:30:27.108Z,20.85
2022-12-26T08:34:43.375Z,22.70
2022-12-26T08:38:59.695Z,19.42
2022-12-26T08:43:42.170Z,19.65
2022-12-26T08:47:54.690Z,20.60
2022-12-26T08:52:10.921Z,20.92
2022-12-26T08:56:28.905Z,21.40
2022-12-26T09:00:46.485Z,19.87
2022-12-26T09:05:05.797Z,21.25
2022-12-26T09:11:37.476Z,19.92
2022-12-26T09:15:53.934Z,21.30
2022-12-26T09:20:10.755Z,20.83
2022-12-26T09:24:26.985Z,20.33
2022-12-26T09:28:45.791Z,20.15
2022-12-26T09:33:04.316Z,21.55
2022-12-26T09:37:20.644Z,21.55
2022-12-26T09:41:42.789Z,21.52
2022-12-26T09:46:13.249Z,21.48
2022-12-26T09:50:41.004Z,20.85
2022-12-26T09:55:02.477Z,21.05
2022-12-26T09:59:21.726Z,21.62
2022-12-26T10:03:43.526Z,22.45
2022-12-26T10:08:11.057Z,20.37
2022-12-26T10:13:01.145Z,19.95
2022-12-26T10:17:43.222Z,20.75
2022-12-26T10:22:08.196Z,20.02
2022-12-26T10:26:29.406Z,18.33
2022-12-26T10:30:47.100Z,17.48
2022-12-26T10:35:16.761Z,17.25
2022-12-26T10:39:48.211Z,17.55
2022-12-26T10:44:04.675Z,15.27
2022-12-26T10:48:21.372Z,14.23
2022-12-26T10:52:40.964Z,15.45
2022-12-26T10:56:59.273Z,14.27
2022-12-26T11:01:37.206Z,15.70
2022-12-26T11:06:10.851Z,16.10
2022-12-26T11:14:45.907Z,15.88
2022-12-26T11:19:02.115Z,18.12
2022-12-26T11:23:48.183Z,17.10
2022-12-26T11:28:19.074Z,17.10
2022-12-26T11:32:35.294Z,17.35
2022-12-26T11:36:51.715Z,15.35
2022-12-26T11:41:32.578Z,15.65
2022-12-26T11:45:51.938Z,16.08
2022-12-26T11:50:19.309Z,15.77
2022-12-26T11:54:38.885Z,17.23
2022-12-26T11:59:13.856Z,16.23
2022-12-26T12:03:49.659Z,16.30
2022-12-26T12:08:20.299Z,14.70
2022-12-26T12:13:02.110Z,19.92
2022-12-26T12:17:44.170Z,16.40
2022-12-26T12:22:34.917Z,16.42
2022-12-26T12:27:06.845Z,16.85
2022-12-26T12:31:51.915Z,16.42
2022-12-26T12:36:18.855Z,17.87
2022-12-26T12:40:41.329Z,18.77
2022-12-26T12:45:16.046Z,17.25
2022-12-26T12:49:44.130Z,16.77
2022-12-26T12:54:09.499Z,17.65
2022-12-26T12:58:31.235Z,16.02
2022-12-26T13:03:17.036Z,16.37
2022-12-26T13:07:45.243Z,15.32
2022-12-26T13:12:06.556Z,16.15
2022-12-26T13:16:43.638Z,16.15
2022-12-26T13:21:08.975Z,15.60
2022-12-26T13:25:27.566Z,16.35
2022-12-26T13:29:47.734Z,17.10
2022-12-26T13:34:07.777Z,18.50
2022-12-26T13:38:26.194Z,18.20
2022-12-26T13:43:08.905Z,18.75
2022-12-26T13:47:51.117Z,18.33
2022-12-26T13:52:15.834Z,18.37
2022-12-26T13:56:31.986Z,17.87
2022-12-26T14:00:48.692Z,19.08
2022-12-26T14:05:32.381Z,19.42
2022-12-26T14:10:04.351Z,17.90
2022-12-26T14:14:57.189Z,19.15
2022-12-26T14:19:32.151Z,20.85
2022-12-26T14:24:18.696Z,19.55
2022-12-26T14:28:43.711Z,21.05
2022-12-26T14:33:27.033Z,19.23
2022-12-26T14:38:22.438Z,19.50
2022-12-26T14:43:10.769Z,20.67
2022-12-26T14:47:38.903Z,20.10
2022-12-26T14:51:55.180Z,19.60
2022-12-26T14:56:36.838Z,19.62
2022-12-26T15:00:54.339Z,21.05
2022-12-26T15:05:22.830Z,20.88
2022-12-26T15:10:15.945Z,19.75
2022-12-26T15:14:59.881Z,18.93
2022-12-26T15:19:44.018Z,20.12
2022-12-26T15:24:26.970Z,21.95
2022-12-26T15:29:33.339Z,21.50
2022-12-26T15:34:11.333Z,21.95
2022-12-26T15:38:42.188Z,21.17
2022-12-26T15:43:10.227Z,22.55
2022-12-26T15:47:47.525Z,22.40
2022-12-26T15:52:08.572Z,21.52
2022-12-26T15:56:48.964Z,21.15
2022-12-26T16:01:05.600Z,21.40
2022-12-26T16:05:31.040Z,20.98
2022-12-26T16:09:53.226Z,20.75
2022-12-26T16:14:25.836Z,21.25
2022-12-26T16:18:41.995Z,21.17
2022-12-26T16:22:58.298Z,21.35
2022-12-26T16:27:24.034Z,21.12
2022-12-26T16:31:40.376Z,22.25
2022-12-26T16:36:00.981Z,21.70
2022-12-26T16:40:21.941Z,23.55
2022-12-26T16:44:40.806Z,23.33
2022-12-26T16:49:01.486Z,23.35
2022-12-26T16:53:20.707Z,24.37
2022-12-26T16:57:36.938Z,22.60
2022-12-26T17:01:58.444Z,21.85
2022-12-26T17:06:52.961Z,22.02
2022-12-26T17:11:09.504Z,23.80
2022-12-26T17:15:36.429Z,22.98
2022-12-26T17:19:54.848Z,24.08
2022-12-26T17:24:25.107Z,23.83
2022-12-26T17:28:41.332Z,23.52
2022-12-26T17:33:23.750Z,24.98
2022-12-26T17:37:40.236Z,23.27
2022-12-26T17:42:01.791Z,23.77
2022-12-26T17:46:18.700Z,23.62
2022-12-26T17:50:43.536Z,25.70
2022-12-26T17:54:59.954Z,22.75
2022-12-26T17:59:16.177Z,21.30
2022-12-26T18:03:32.635Z,23.65
2022-12-26T18:07:50.948Z,24.27
2022-12-26T18:12:07.222Z,22.13
2022-12-26T18:16:28.314Z,24.25
2022-12-26T18:20:44.485Z,22.73
2022-12-26T18:25:00.623Z,22.77
2022-12-26T18:29:16.844Z,26.77
2022-12-26T18:33:33.005Z,23.90
2022-12-26T18:37:51.398Z,25.00
2022-12-26T18:42:11.569Z,23.65
2022-12-26T18:46:29.889Z,24.95
2022-12-26T18:50:46.398Z,24.27
2022-12-26T18:55:02.565Z,25.98
2022-12-26T18:59:18.723Z,24.10
2022-12-26T19:03:34.907Z,25.88
2022-12-26T19:07:51.235Z,25.30
2022-12-26T19:12:07.498Z,25.73
2022-12-26T19:16:23.765Z,25.92
2022-12-26T19:20:44.166Z,23.77
2022-12-26T19:25:00.570Z,23.02
2022-12-26T19:29:16.829Z,26.33
2022-12-26T19:33:32.928Z,27.00
2022-12-26T19:37:49.057Z,29.50
2022-12-26T19:42:05.264Z,26.67
2022-12-26T19:46:21.530Z,29.40
2022-12-26T19:50:37.806Z,37.88
2022-12-26T19:54:54.205Z,26.10
2022-12-26T19:59:10.437Z,28.10
2022-12-26T20:03:26.670Z,24.33
2022-12-26T20:07:42.914Z,28.08
2022-12-26T20:11:59.199Z,26.45
2022-12-26T20:17:03.013Z,22.80
2022-12-26T20:21:01.643Z,23.58
2022-12-26T20:25:18.177Z,28.12
2022-12-26T20:29:34.403Z,24.63
2022-12-26T20:33:52.664Z,24.20
2022-12-26T20:38:09.377Z,23.60
2022-12-26T20:42:25.927Z,24.15
2022-12-26T20:46:42.783Z,25.90
2022-12-26T20:51:00.256Z,25.08
2022-12-26T20:55:20.145Z,28.90
2022-12-26T20:59:37.507Z,24.25
2022-12-26T21:03:55.046Z,29.30
2022-12-26T21:08:11.286Z,21.35
2022-12-26T21:12:27.409Z,26.58
2022-12-26T21:16:46.345Z,25.33
2022-12-26T21:21:13.684Z,23.83
2022-12-26T21:25:30.017Z,26.52
2022-12-26T21:29:46.179Z,26.10
2022-12-26T21:34:03.518Z,22.85
2022-12-26T21:38:24.001Z,24.85
2022-12-26T21:42:40.255Z,23.98
2022-12-26T21:46:56.405Z,24.63
2022-12-26T21:51:16.589Z,22.23
2022-12-26T21:55:36.601Z,22.20
2022-12-26T21:59:59.491Z,23.10
2022-12-26T22:04:23.856Z,22.23
2022-12-26T22:08:40.750Z,22.40
2022-12-26T22:12:57.006Z,22.05
2022-12-26T22:17:13.454Z,21.10
2022-12-26T22:21:29.776Z,21.62
2022-12-26T22:25:54.997Z,22.05
2022-12-26T22:30:11.859Z,21.55
2022-12-26T22:34:28.145Z,22.10
2022-12-26T22:38:44.207Z,20.80
2022-12-26T22:43:00.524Z,20.52
2022-12-26T22:47:16.953Z,18.20
2022-12-26T22:51:33.140Z,18.65
2022-12-26T22:55:51.256Z,16.62
2022-12-26T23:00:11.304Z,18.45
2022-12-26T23:04:30.828Z,15.77
2022-12-26T23:08:47.786Z,16.87
2022-12-26T23:13:04.118Z,15.88
2022-12-26T23:17:40.485Z,16.12
2022-12-26T23:21:58.523Z,16.90
2022-12-26T23:26:14.810Z,17.05
2022-12-26T23:30:31.814Z,17.02
2022-12-26T23:34:48.003Z,17.15
2022-12-26T23:39:04.130Z,16.25
2022-12-26T23:43:20.822Z,16.65
2022-12-26T23:47:38.535Z,16.62
2022-12-26T23:51:54.942Z,16.20
2022-12-26T23:56:11.446Z,16.83
